Time;durP1;ratioP1;P1;durP2;ratioP2;P2;SDS_P1;SDS_P2;PMS_P1;PMS_P2;Temp;Humidity;BMP_temperature;BMP_pressure;BME280_temperature;BME280_humidity;BME280_pressure;Samples;Min_cycle;Max_cycle;Signal;HPM_P1;HPM_P2
2023/12/10 00:02:19;;;;;;;27.50;5.20;;;7.70;99.90;;;;;;5088168;28;20052;-45
2023/12/10 00:04:45;;;;;;;30.15;5.53;;;7.80;99.90;;;;;;5090084;28;20123;-45
2023/12/10 00:07:11;;;;;;;32.67;5.93;;;7.70;99.90;;;;;;5092561;28;20485;-45
2023/12/10 00:09:36;;;;;;;30.80;5.32;;;7.80;99.90;;;;;;5092704;28;20090;-45
2023/12/10 00:12:02;;;;;;;30.05;5.68;;;7.80;99.90;;;;;;5088292;28;20504;-45
2023/12/10 00:14:28;;;;;;;27.90;5.35;;;7.80;99.90;;;;;;5091239;28;20047;-45
2023/12/10 00:16:54;;;;;;;31.95;5.18;;;7.80;99.90;;;;;;5087783;28;20043;-46
2023/12/10 00:19:20;;;;;;;26.88;5.18;;;7.80;99.90;;;;;;5087696;28;20032;-45
2023/12/10 00:21:46;;;;;;;32.13;5.80;;;7.70;99.90;;;;;;5084321;28;20032;-47
2023/12/10 00:24:12;;;;;;;33.08;5.63;;;7.70;99.90;;;;;;5081968;28;20145;-47
2023/12/10 00:26:38;;;;;;;35.17;6.43;;;7.70;99.90;;;;;;5083706;28;20217;-47
2023/12/10 00:29:03;;;;;;;31.33;4.82;;;7.70;99.90;;;;;;5070629;28;20123;-47
2023/12/10 00:31:29;;;;;;;30.35;6.05;;;7.80;99.90;;;;;;5083269;28;20091;-44
2023/12/10 00:33:55;;;;;;;28.50;5.55;;;7.70;99.90;;;;;;5082061;28;20083;-45
2023/12/10 00:36:22;;;;;;;32.63;5.95;;;7.70;99.90;;;;;;5076842;28;20101;-45
2023/12/10 00:38:48;;;;;;;33.15;5.90;;;7.70;99.90;;;;;;5081874;28;20047;-44
2023/12/10 00:41:14;;;;;;;31.75;5.47;;;7.70;99.90;;;;;;5083432;28;20055;-48
2023/12/10 00:43:40;;;;;;;35.67;5.97;;;7.70;99.90;;;;;;5079524;28;20036;-45
2023/12/10 00:46:06;;;;;;;36.25;5.97;;;7.70;99.90;;;;;;5080572;28;20091;-45
2023/12/10 00:48:37;;;;;;;33.38;5.88;;;7.70;99.90;;;;;;5079743;28;20040;-46
2023/12/10 00:51:03;;;;;;;30.38;5.25;;;7.80;99.90;;;;;;5079640;28;20055;-47
2023/12/10 00:53:29;;;;;;;29.98;5.57;;;7.80;99.90;;;;;;5086773;28;20382;-47
2023/12/10 00:55:54;;;;;;;37.20;5.07;;;7.80;99.90;;;;;;5088305;28;20039;-49
2023/12/10 00:58:20;;;;;;;30.00;6.47;;;7.80;99.90;;;;;;5086539;28;20094;-46
2023/12/10 01:00:46;;;;;;;28.08;5.25;;;7.80;99.90;;;;;;5087850;28;20473;-46
2023/12/10 01:03:11;;;;;;;32.67;5.88;;;7.80;99.90;;;;;;5085776;28;20040;-45
2023/12/10 01:05:37;;;;;;;26.08;5.18;;;7.80;99.90;;;;;;5085138;28;21496;-44
2023/12/10 01:08:03;;;;;;;27.45;5.88;;;7.80;99.90;;;;;;5083616;28;20035;-45
2023/12/10 01:10:29;;;;;;;29.73;5.53;;;7.80;99.90;;;;;;5077966;28;20036;-45
2023/12/10 01:12:56;;;;;;;29.55;5.65;;;7.80;99.90;;;;;;5079960;28;20505;-45
2023/12/10 01:15:29;;;;;;;31.35;5.22;;;7.70;99.90;;;;;;5082869;28;20079;-45
2023/12/10 01:18:00;;;;;;;26.95;4.82;;;7.70;99.90;;;;;;5084205;28;20044;-44
2023/12/10 01:20:33;;;;;;;31.27;5.65;;;7.60;99.90;;;;;;5084317;28;20107;-48
2023/12/10 01:23:00;;;;;;;25.52;4.72;;;7.60;99.90;;;;;;5086111;28;20527;-45
2023/12/10 01:25:26;;;;;;;23.03;5.23;;;7.60;99.90;;;;;;5084109;28;21740;-46
2023/12/10 01:27:53;;;;;;;25.48;3.88;;;7.60;99.90;;;;;;5078077;28;20040;-45
2023/12/10 01:30:23;;;;;;;27.50;4.28;;;7.60;99.90;;;;;;5077537;28;20044;-45
2023/12/10 01:32:51;;;;;;;25.85;4.20;;;7.50;99.90;;;;;;5083906;28;21345;-43
2023/12/10 01:35:17;;;;;;;;;;;7.50;99.90;;;;;;5081286;28;20044;-45
2023/12/10 01:37:42;;;;;;;25.73;4.60;;;7.50;99.90;;;;;;5062817;28;21006;-44
2023/12/10 01:40:08;;;;;;;28.67;4.88;;;7.50;99.90;;;;;;5082341;28;20036;-44
2023/12/10 01:42:35;;;;;;;31.80;5.65;;;7.50;99.90;;;;;;5080400;28;20044;-44
2023/12/10 01:45:03;;;;;;;24.73;4.85;;;7.50;99.90;;;;;;5079832;28;20529;-45
2023/12/10 01:47:33;;;;;;;29.77;5.25;;;7.50;99.90;;;;;;5077922;28;20573;-46
2023/12/10 01:50:00;;;;;;;29.30;4.63;;;7.50;99.90;;;;;;5077061;28;20048;-44
2023/12/10 01:52:26;;;;;;;31.55;4.95;;;7.50;99.90;;;;;;5075613;28;20036;-44
2023/12/10 01:54:52;;;;;;;28.73;4.57;;;7.50;99.90;;;;;;5080619;28;20508;-45
2023/12/10 01:57:18;;;;;;;30.85;4.97;;;7.50;99.90;;;;;;5083812;28;20036;-44
2023/12/10 01:59:44;;;;;;;36.33;5.57;;;7.50;99.90;;;;;;5082529;28;20051;-46
2023/12/10 02:02:12;;;;;;;37.28;5.97;;;7.50;99.90;;;;;;5082370;28;20419;-45
2023/12/10 02:04:39;;;;;;;;;;;7.50;99.90;;;;;;5065467;28;20048;-45
2023/12/10 02:07:04;;;;;;;33.35;5.15;;;7.50;99.90;;;;;;5085796;28;19961;-45
2023/12/10 02:09:30;;;;;;;26.00;4.80;;;7.50;99.90;;;;;;5083030;28;20450;-45
2023/12/10 02:11:56;;;;;;;26.30;5.18;;;7.50;99.90;;;;;;5084035;28;20154;-44
2023/12/10 02:14:22;;;;;;;32.17;5.57;;;7.50;99.90;;;;;;5080116;28;20458;-45
2023/12/10 02:16:48;;;;;;;25.38;5.05;;;7.50;99.90;;;;;;5080575;28;20047;-44
2023/12/10 02:19:13;;;;;;;34.05;5.20;;;7.50;99.90;;;;;;5087254;28;20378;-45
2023/12/10 02:21:44;;;;;;;25.15;5.03;;;7.50;99.90;;;;;;5085351;28;20055;-45
2023/12/10 02:24:14;;;;;;;28.08;5.40;;;7.50;99.90;;;;;;5091207;28;20159;-44
2023/12/10 02:26:40;;;;;;;31.17;5.50;;;7.50;99.90;;;;;;5087002;28;20524;-44
2023/12/10 02:29:06;;;;;;;33.95;5.20;;;7.50;99.90;;;;;;5083959;28;20481;-44
2023/12/10 02:31:31;;;;;;;31.40;5.55;;;7.50;99.90;;;;;;5085688;28;20102;-44
2023/12/10 02:33:57;;;;;;;29.02;5.80;;;7.50;99.90;;;;;;5086025;28;20436;-44
2023/12/10 02:36:23;;;;;;;31.95;5.57;;;7.50;99.90;;;;;;5090233;28;20068;-44
2023/12/10 02:38:49;;;;;;;35.08;5.07;;;7.50;99.90;;;;;;5088415;28;20032;-45
2023/12/10 02:41:15;;;;;;;30.52;5.03;;;7.50;99.90;;;;;;5093761;28;20044;-44
2023/12/10 02:43:41;;;;;;;37.90;6.15;;;7.50;99.90;;;;;;5087774;28;20536;-45
2023/12/10 02:46:07;;;;;;;31.45;5.30;;;7.50;99.90;;;;;;5080496;28;20127;-46
2023/12/10 02:48:33;;;;;;;33.03;5.38;;;7.50;99.90;;;;;;5086645;28;20524;-44
2023/12/10 02:50:58;;;;;;;32.75;5.95;;;7.50;99.90;;;;;;5067533;28;20473;-44
2023/12/10 02:53:24;;;;;;;31.75;5.05;;;7.50;99.90;;;;;;5083388;28;20036;-46
2023/12/10 02:55:51;;;;;;;36.70;5.10;;;7.50;99.90;;;;;;5087581;28;20044;-45
2023/12/10 02:58:17;;;;;;;36.08;5.32;;;7.50;99.90;;;;;;5085003;28;20080;-44
2023/12/10 03:00:43;;;;;;;33.13;5.32;;;7.50;99.90;;;;;;5086668;28;20056;-43
2023/12/10 03:03:09;;;;;;;26.05;6.20;;;7.50;99.90;;;;;;5085226;28;20097;-45
2023/12/10 03:05:34;;;;;;;29.40;5.63;;;7.50;99.90;;;;;;5088295;28;20094;-44
2023/12/10 03:08:00;;;;;;;33.90;5.82;;;7.50;99.90;;;;;;5051949;28;20040;-45
2023/12/10 03:10:26;;;;;;;31.17;5.75;;;7.50;99.90;;;;;;5087767;28;20036;-44
2023/12/10 03:12:51;;;;;;;29.85;5.22;;;7.50;99.90;;;;;;5082696;28;20036;-44
2023/12/10 03:15:17;;;;;;;31.65;4.57;;;7.50;99.90;;;;;;5085695;28;20036;-44
2023/12/10 03:17:43;;;;;;;33.78;5.43;;;7.50;99.90;;;;;;5083978;28;20040;-44
2023/12/10 03:20:09;;;;;;;31.63;5.32;;;7.50;99.90;;;;;;5087498;28;20036;-44
2023/12/10 03:22:35;;;;;;;24.40;4.60;;;7.50;99.90;;;;;;5088078;28;20032;-43
2023/12/10 03:25:01;;;;;;;27.55;4.43;;;7.50;99.90;;;;;;5089914;28;20043;-44
2023/12/10 03:27:26;;;;;;;25.98;4.22;;;7.50;99.90;;;;;;5087685;28;21994;-44
2023/12/10 03:29:52;;;;;;;31.25;4.78;;;7.50;99.90;;;;;;5081663;28;20143;-45
2023/12/10 03:32:18;;;;;;;20.63;3.88;;;7.40;99.90;;;;;;5088215;28;20040;-45
2023/12/10 03:34:43;;;;;;;23.27;4.43;;;7.50;99.90;;;;;;5088666;28;20082;-45
2023/12/10 03:37:09;;;;;;;21.15;3.97;;;7.50;99.90;;;;;;5087792;28;20044;-44
2023/12/10 03:39:35;;;;;;;22.50;4.20;;;7.40;99.90;;;;;;5087861;28;21454;-44
2023/12/10 03:42:00;;;;;;;24.27;3.92;;;7.50;99.90;;;;;;5066485;28;20055;-43
2023/12/10 03:44:26;;;;;;;24.15;3.97;;;7.40;99.90;;;;;;5088849;28;20128;-44
2023/12/10 03:46:51;;;;;;;23.95;3.38;;;7.40;99.90;;;;;;5086832;28;20036;-43
2023/12/10 03:49:17;;;;;;;24.98;4.10;;;7.40;99.90;;;;;;5084068;28;20050;-44
2023/12/10 03:51:43;;;;;;;17.02;3.42;;;7.40;99.90;;;;;;5080726;28;20044;-43
2023/12/10 03:54:08;;;;;;;21.48;4.25;;;7.40;99.90;;;;;;5083172;28;20119;-44
2023/12/10 03:56:34;;;;;;;21.65;4.13;;;7.40;99.90;;;;;;5088913;28;20059;-44
2023/12/10 03:59:00;;;;;;;18.10;3.70;;;7.40;99.90;;;;;;5084726;28;20656;-44
2023/12/10 04:01:26;;;;;;;23.23;4.10;;;7.40;99.90;;;;;;5084806;28;20119;-45
2023/12/10 04:03:51;;;;;;;20.13;3.45;;;7.40;99.90;;;;;;5081857;28;20130;-45
2023/12/10 04:06:17;;;;;;;22.42;4.03;;;7.40;99.90;;;;;;5081175;28;20040;-45
2023/12/10 04:08:43;;;;;;;26.80;4.07;;;7.40;99.90;;;;;;5085334;28;20496;-43
2023/12/10 04:11:09;;;;;;;25.25;4.60;;;7.40;99.90;;;;;;5083100;28;20048;-44
2023/12/10 04:13:35;;;;;;;24.77;3.88;;;7.50;99.90;;;;;;5083213;28;20040;-44
2023/12/10 04:16:01;;;;;;;29.17;4.72;;;7.40;99.90;;;;;;5088577;28;20176;-43
2023/12/10 04:18:29;;;;;;;26.10;4.07;;;7.50;99.90;;;;;;5085358;28;20044;-44
2023/12/10 04:20:55;;;;;;;21.98;4.10;;;7.40;99.90;;;;;;5081812;28;20049;-44
2023/12/10 04:23:21;;;;;;;21.08;3.58;;;7.40;99.90;;;;;;5081162;28;20177;-43
2023/12/10 04:25:46;;;;;;;29.85;4.18;;;7.40;99.90;;;;;;5083366;28;20039;-45
2023/12/10 04:28:12;;;;;;;25.27;3.95;;;7.50;99.90;;;;;;5085268;28;20047;-44
2023/12/10 04:30:38;;;;;;;27.08;4.05;;;7.50;99.90;;;;;;5087839;28;20514;-45
2023/12/10 04:33:04;;;;;;;28.08;4.43;;;7.50;99.90;;;;;;5080323;28;20047;-44
2023/12/10 04:35:30;;;;;;;29.30;4.75;;;7.50;99.90;;;;;;5081861;28;20036;-45
2023/12/10 04:37:56;;;;;;;23.83;4.18;;;7.40;99.90;;;;;;5081785;28;20118;-44
2023/12/10 04:40:22;;;;;;;28.73;4.50;;;7.40;99.90;;;;;;5080020;28;20509;-45
2023/12/10 04:42:48;;;;;;;19.38;4.30;;;7.50;99.90;;;;;;5079207;28;20047;-44
2023/12/10 04:45:14;;;;;;;25.83;4.18;;;7.50;99.90;;;;;;5078417;28;20058;-45
2023/12/10 04:47:40;;;;;;;27.70;4.43;;;7.50;99.90;;;;;;5085183;28;20497;-44
2023/12/10 04:50:06;;;;;;;20.92;3.78;;;7.50;99.90;;;;;;5061490;28;20039;-44
2023/12/10 04:52:34;;;;;;;24.83;4.22;;;7.60;99.90;;;;;;5077653;28;20032;-45
2023/12/10 04:55:00;;;;;;;27.20;3.95;;;7.50;99.90;;;;;;5080823;28;20071;-44
2023/12/10 04:57:26;;;;;;;34.85;5.13;;;7.50;99.90;;;;;;5078977;28;20562;-44
2023/12/10 04:59:52;;;;;;;21.55;4.15;;;7.50;99.90;;;;;;5080285;28;20039;-46
2023/12/10 05:02:17;;;;;;;28.85;4.68;;;7.50;99.90;;;;;;5079788;28;20409;-47
2023/12/10 05:04:44;;;;;;;28.60;4.47;;;7.60;99.90;;;;;;5082754;28;20056;-45
2023/12/10 05:07:09;;;;;;;30.23;5.13;;;7.60;99.90;;;;;;5082856;28;20066;-44
2023/12/10 05:09:35;;;;;;;30.35;4.72;;;7.60;99.90;;;;;;5083337;28;20355;-45
2023/12/10 05:12:01;;;;;;;28.35;4.68;;;7.60;99.90;;;;;;5080974;28;20076;-44
2023/12/10 05:14:26;;;;;;;27.23;4.72;;;7.60;99.90;;;;;;5079746;28;20042;-45
2023/12/10 05:16:52;;;;;;;38.65;5.93;;;7.60;99.90;;;;;;5087453;28;20400;-44
2023/12/10 05:19:18;;;;;;;36.67;5.05;;;7.60;99.90;;;;;;5088002;28;20036;-44
2023/12/10 05:21:43;;;;;;;28.23;4.93;;;7.60;99.90;;;;;;5083996;28;20032;-44
2023/12/10 05:24:09;;;;;;;35.50;6.50;;;7.60;99.90;;;;;;5083312;28;20047;-44
2023/12/10 05:26:35;;;;;;;27.17;4.55;;;7.60;99.90;;;;;;5082324;28;20046;-46
2023/12/10 05:29:01;;;;;;;31.23;4.85;;;7.60;99.90;;;;;;5086681;28;20086;-44
2023/12/10 05:31:26;;;;;;;32.67;5.00;;;7.70;99.90;;;;;;5084911;28;20055;-45
2023/12/10 05:33:52;;;;;;;26.60;4.03;;;7.70;99.90;;;;;;5086087;28;20044;-44
2023/12/10 05:36:18;;;;;;;26.15;4.78;;;7.60;99.90;;;;;;5084988;28;20051;-44
2023/12/10 05:38:43;;;;;;;29.48;4.30;;;7.60;99.90;;;;;;5084809;28;20044;-44
2023/12/10 05:41:09;;;;;;;28.08;4.80;;;7.60;99.90;;;;;;5081027;28;20394;-43
2023/12/10 05:43:35;;;;;;;31.45;4.68;;;7.70;99.90;;;;;;5084450;28;20508;-43
2023/12/10 05:46:01;;;;;;;29.10;4.65;;;7.70;99.90;;;;;;5088183;28;20044;-43
2023/12/10 05:48:29;;;;;;;39.60;5.32;;;7.70;99.90;;;;;;5078858;28;20127;-44
2023/12/10 05:50:55;;;;;;;30.92;4.72;;;7.60;99.90;;;;;;5083864;28;20047;-45
2023/12/10 05:53:21;;;;;;;27.30;4.70;;;7.70;99.90;;;;;;5083587;28;20036;-45
2023/12/10 05:55:46;;;;;;;32.88;5.10;;;7.60;99.90;;;;;;5083862;28;20420;-43
2023/12/10 05:58:13;;;;;;;31.60;4.95;;;7.70;99.90;;;;;;5084715;28;20434;-46
2023/12/10 06:00:39;;;;;;;26.75;4.40;;;7.70;99.90;;;;;;5082489;28;20040;-45
2023/12/10 06:03:04;;;;;;;30.75;5.43;;;7.70;99.90;;;;;;5083166;28;20529;-45
2023/12/10 06:05:30;;;;;;;26.73;4.60;;;7.70;99.90;;;;;;5085846;28;20461;-43
2023/12/10 06:07:56;;;;;;;40.75;6.03;;;7.70;99.90;;;;;;5084446;28;20105;-47
2023/12/10 06:10:22;;;;;;;36.10;4.80;;;7.80;99.90;;;;;;5080367;28;20442;-45
2023/12/10 06:12:49;;;;;;;33.85;5.25;;;7.80;99.90;;;;;;5080654;28;20124;-43
2023/12/10 06:15:15;;;;;;;43.85;6.45;;;7.80;99.90;;;;;;5082820;28;20599;-45
2023/12/10 06:17:41;;;;;;;32.63;5.53;;;7.80;99.90;;;;;;5085448;28;20047;-46
2023/12/10 06:20:08;;;;;;;34.95;5.25;;;7.70;99.90;;;;;;5081156;28;20516;-45
2023/12/10 06:22:34;;;;;;;38.75;6.25;;;7.70;99.90;;;;;;5080232;28;20044;-46
2023/12/10 06:24:59;;;;;;;33.42;5.90;;;7.70;99.90;;;;;;5081831;28;20390;-44
2023/12/10 06:27:25;;;;;;;31.33;5.13;;;7.80;99.90;;;;;;5081113;28;21178;-45
2023/12/10 06:29:51;;;;;;;30.35;4.90;;;7.80;99.90;;;;;;5082663;28;20062;-44
2023/12/10 06:32:16;;;;;;;32.95;5.55;;;7.90;99.90;;;;;;5082739;28;20464;-44
2023/12/10 06:34:42;;;;;;;34.38;5.25;;;7.80;99.90;;;;;;5084605;28;20090;-44
2023/12/10 06:37:08;;;;;;;46.22;6.65;;;7.90;99.90;;;;;;5083204;28;20036;-46
2023/12/10 06:39:34;;;;;;;37.40;6.10;;;7.80;99.90;;;;;;5085194;28;20089;-45
2023/12/10 06:41:59;;;;;;;37.42;5.78;;;7.90;99.90;;;;;;5081586;28;20098;-46
2023/12/10 06:44:25;;;;;;;34.25;5.75;;;7.80;99.90;;;;;;5081243;28;20051;-44
2023/12/10 06:46:51;;;;;;;37.38;6.10;;;7.90;99.90;;;;;;5079349;28;20040;-46
2023/12/10 06:49:17;;;;;;;37.30;6.20;;;7.90;99.90;;;;;;5079502;28;20044;-45
2023/12/10 06:51:43;;;;;;;48.08;6.22;;;7.90;99.90;;;;;;5082599;28;20119;-44
2023/12/10 06:54:10;;;;;;;40.78;6.03;;;8.00;99.90;;;;;;5084020;28;20042;-44
2023/12/10 06:56:39;;;;;;;32.03;5.35;;;7.90;99.90;;;;;;5081621;28;20052;-45
2023/12/10 06:59:07;;;;;;;37.47;5.70;;;8.00;99.90;;;;;;5080098;28;21000;-44
2023/12/10 07:01:37;;;;;;;37.65;6.13;;;8.00;99.90;;;;;;5078792;28;20040;-45
2023/12/10 07:04:07;;;;;;;27.58;4.88;;;8.00;99.90;;;;;;5080348;28;20492;-43
2023/12/10 07:06:33;;;;;;;38.97;5.68;;;8.10;99.90;;;;;;5078734;28;20047;-44
2023/12/10 07:08:59;;;;;;;29.90;4.85;;;8.00;99.90;;;;;;5082269;28;20389;-44
2023/12/10 07:11:24;;;;;;;34.35;5.97;;;8.10;99.90;;;;;;5088477;28;20377;-45
2023/12/10 07:13:53;;;;;;;29.45;5.10;;;8.10;99.90;;;;;;5087418;28;20527;-45
2023/12/10 07:16:19;;;;;;;29.88;5.22;;;8.00;99.90;;;;;;5085462;28;20048;-45
2023/12/10 07:18:45;;;;;;;25.77;5.40;;;8.00;99.90;;;;;;5082757;28;20067;-46
2023/12/10 07:21:11;;;;;;;27.45;4.50;;;8.10;99.90;;;;;;5087181;28;20098;-46
2023/12/10 07:23:37;;;;;;;33.30;5.25;;;8.10;99.90;;;;;;5085024;28;20040;-45
2023/12/10 07:26:04;;;;;;;27.40;4.60;;;8.00;99.90;;;;;;5083456;28;20052;-45
2023/12/10 07:28:29;;;;;;;23.27;4.72;;;8.10;99.90;;;;;;5083946;28;20446;-45
2023/12/10 07:30:55;;;;;;;26.38;4.53;;;8.10;99.90;;;;;;5083576;28;20050;-45
2023/12/10 07:33:21;;;;;;;21.85;3.80;;;8.00;99.90;;;;;;5082922;28;20474;-45
2023/12/10 07:35:47;;;;;;;24.92;3.88;;;8.00;99.90;;;;;;5083147;28;20047;-45
2023/12/10 07:38:13;;;;;;;21.40;4.00;;;8.10;99.90;;;;;;5082735;28;20067;-46
2023/12/10 07:40:39;;;;;;;24.50;4.32;;;8.00;99.90;;;;;;5083465;28;20036;-45
2023/12/10 07:43:06;;;;;;;23.55;4.03;;;8.10;99.90;;;;;;5082171;28;20044;-46
2023/12/10 07:45:32;;;;;;;25.83;4.38;;;8.00;99.90;;;;;;5083396;28;20444;-45
2023/12/10 07:47:57;;;;;;;25.77;4.50;;;8.00;99.90;;;;;;5084302;28;20028;-46
2023/12/10 07:50:23;;;;;;;29.60;4.50;;;7.90;99.90;;;;;;5084168;28;20458;-46
2023/12/10 07:52:48;;;;;;;24.75;4.22;;;7.90;99.90;;;;;;5082284;28;20056;-45
2023/12/10 07:55:14;;;;;;;21.75;4.45;;;8.00;99.90;;;;;;5089687;28;20072;-44
2023/12/10 07:57:40;;;;;;;22.40;3.92;;;8.00;99.90;;;;;;5086903;28;20032;-44
2023/12/10 08:00:06;;;;;;;21.25;4.28;;;7.90;99.90;;;;;;5089109;28;20191;-44
2023/12/10 08:02:32;;;;;;;20.05;4.18;;;7.90;99.90;;;;;;5085776;28;20051;-44
2023/12/10 08:04:59;;;;;;;23.13;4.28;;;8.00;99.90;;;;;;5086869;28;21592;-43
2023/12/10 08:07:25;;;;;;;27.92;4.43;;;8.00;99.90;;;;;;5087380;28;20064;-45
2023/12/10 08:09:51;;;;;;;30.23;4.60;;;7.90;99.90;;;;;;5088393;28;20036;-44
2023/12/10 08:12:17;;;;;;;31.38;4.30;;;8.00;99.90;;;;;;5087515;28;20409;-47
2023/12/10 08:14:43;;;;;;;29.67;4.90;;;8.00;99.90;;;;;;5086733;28;20119;-47
2023/12/10 08:17:09;;;;;;;25.42;5.22;;;7.90;99.90;;;;;;5086983;28;20040;-45
2023/12/10 08:19:35;;;;;;;27.88;4.78;;;8.00;99.90;;;;;;5085010;28;20055;-45
2023/12/10 08:22:01;;;;;;;27.52;4.63;;;7.90;99.90;;;;;;5089824;28;20054;-45
2023/12/10 08:24:27;;;;;;;28.90;4.65;;;8.00;99.90;;;;;;5082412;28;20036;-46
2023/12/10 08:26:54;;;;;;;35.05;5.28;;;8.00;99.90;;;;;;5082961;28;20032;-45
2023/12/10 08:29:19;;;;;;;38.78;5.47;;;7.90;99.90;;;;;;5086176;28;20043;-44
2023/12/10 08:31:45;;;;;;;39.80;6.10;;;7.90;99.90;;;;;;5087684;28;20056;-45
2023/12/10 08:34:11;;;;;;;46.30;8.25;;;7.90;99.90;;;;;;5087376;28;20220;-45
2023/12/10 08:36:38;;;;;;;46.67;6.90;;;8.00;99.90;;;;;;5088232;28;20040;-46
2023/12/10 08:39:03;;;;;;;47.25;7.40;;;7.90;99.90;;;;;;5088317;28;20116;-49
2023/12/10 08:41:31;;;;;;;52.55;7.72;;;7.90;99.90;;;;;;5084765;28;20138;-45
2023/12/10 08:43:56;;;;;;;50.30;7.35;;;7.90;99.90;;;;;;5086983;28;20522;-47
2023/12/10 08:46:22;;;;;;;40.42;6.60;;;7.90;99.90;;;;;;5083443;28;20079;-45
2023/12/10 08:48:48;;;;;;;39.00;7.63;;;7.90;99.90;;;;;;5085816;28;20032;-45
2023/12/10 08:51:13;;;;;;;46.67;6.50;;;7.90;99.90;;;;;;5088867;28;20432;-45
2023/12/10 08:53:39;;;;;;;46.05;6.43;;;7.90;99.90;;;;;;5064977;28;20508;-45
2023/12/10 08:56:05;;;;;;;49.42;7.25;;;8.00;99.90;;;;;;5089430;28;20044;-46
2023/12/10 08:58:32;;;;;;;50.25;7.03;;;7.90;99.90;;;;;;5087683;28;20048;-46
2023/12/10 09:00:59;;;;;;;51.88;7.68;;;7.90;99.90;;;;;;5085834;28;20043;-45
2023/12/10 09:03:24;;;;;;;44.45;6.45;;;7.90;99.90;;;;;;5084473;28;20058;-49
2023/12/10 09:05:50;;;;;;;41.70;7.00;;;7.90;99.90;;;;;;5085050;28;20079;-45
2023/12/10 09:08:16;;;;;;;40.28;5.82;;;8.00;99.90;;;;;;5088148;28;20040;-45
2023/12/10 09:10:43;;;;;;;47.60;6.43;;;8.00;99.90;;;;;;5089249;28;20185;-45
2023/12/10 09:13:09;;;;;;;42.00;6.43;;;8.00;99.90;;;;;;5086511;28;20443;-45
2023/12/10 09:15:35;;;;;;;43.00;6.85;;;8.00;99.90;;;;;;5087981;28;20043;-45
2023/12/10 09:18:01;;;;;;;41.00;6.00;;;8.00;99.90;;;;;;5085729;28;20155;-45
2023/12/10 09:20:26;;;;;;;36.17;5.07;;;8.10;99.90;;;;;;5088241;28;20048;-47
2023/12/10 09:22:52;;;;;;;42.70;6.20;;;8.10;99.90;;;;;;5086474;28;20048;-46
2023/12/10 09:25:18;;;;;;;43.47;6.82;;;8.10;99.90;;;;;;5088639;28;20101;-49
2023/12/10 09:27:43;;;;;;;33.60;6.15;;;8.00;99.90;;;;;;5088540;28;20124;-45
2023/12/10 09:30:09;;;;;;;38.30;5.80;;;8.10;99.90;;;;;;5094291;28;20052;-46
2023/12/10 09:32:35;;;;;;;39.85;6.07;;;8.00;99.90;;;;;;5077090;28;20462;-46
2023/12/10 09:35:04;;;;;;;43.65;6.22;;;8.00;99.90;;;;;;5094309;28;20127;-46
2023/12/10 09:37:29;;;;;;;35.63;6.57;;;8.00;99.90;;;;;;5076360;28;20035;-46
2023/12/10 09:39:55;;;;;;;33.33;6.60;;;8.00;99.90;;;;;;5089127;28;20028;-47
2023/12/10 09:42:21;;;;;;;42.58;6.30;;;8.00;99.90;;;;;;5093280;28;20382;-47
2023/12/10 09:44:47;;;;;;;55.67;6.80;;;8.00;99.90;;;;;;5094703;28;20477;-46
2023/12/10 09:47:12;;;;;;;42.17;6.07;;;8.00;99.90;;;;;;5092725;28;20501;-45
2023/12/10 09:49:40;;;;;;;42.22;6.05;;;8.00;99.90;;;;;;5091413;28;20047;-44
2023/12/10 09:52:06;;;;;;;50.38;6.63;;;8.00;99.90;;;;;;5094152;28;20550;-45
2023/12/10 09:54:32;;;;;;;40.15;6.28;;;8.00;99.90;;;;;;5093694;28;20047;-46
2023/12/10 09:56:57;;;;;;;52.88;7.20;;;8.00;99.90;;;;;;5088644;28;20388;-45
2023/12/10 09:59:23;;;;;;;45.03;5.93;;;8.00;99.90;;;;;;5096322;28;20055;-48
2023/12/10 10:01:50;;;;;;;48.30;6.38;;;8.00;99.90;;;;;;5093870;28;20511;-45
2023/12/10 10:04:16;;;;;;;45.20;6.68;;;8.00;99.90;;;;;;5090070;28;20059;-48
2023/12/10 10:06:42;;;;;;;36.85;6.00;;;8.00;99.90;;;;;;5089983;28;20123;-45
2023/12/10 10:09:08;;;;;;;44.47;6.93;;;8.00;99.90;;;;;;5092252;28;20139;-47
2023/12/10 10:11:34;;;;;;;50.83;6.65;;;8.10;99.90;;;;;;5092726;28;20129;-44
2023/12/10 10:14:00;;;;;;;35.63;5.65;;;8.10;99.90;;;;;;5089895;28;20085;-44
2023/12/10 10:16:26;;;;;;;38.97;6.72;;;8.10;99.90;;;;;;5088612;28;20485;-45
2023/12/10 10:18:52;;;;;;;43.10;6.65;;;8.10;99.90;;;;;;5092547;28;20064;-45
2023/12/10 10:21:17;;;;;;;35.67;5.60;;;8.20;99.90;;;;;;5093893;28;20497;-46
2023/12/10 10:23:43;;;;;;;40.80;6.55;;;8.20;99.90;;;;;;5091420;28;20486;-44
2023/12/10 10:26:10;;;;;;;36.80;5.57;;;8.10;99.90;;;;;;5093327;28;20040;-45
2023/12/10 10:28:37;;;;;;;33.63;5.20;;;8.10;99.90;;;;;;5089419;28;20044;-44
2023/12/10 10:31:02;;;;;;;36.03;6.25;;;8.20;99.90;;;;;;5090286;28;20409;-46
2023/12/10 10:33:28;;;;;;;32.72;5.53;;;8.20;99.90;;;;;;5090393;28;20044;-45
2023/12/10 10:35:54;;;;;;;44.28;6.50;;;8.20;99.90;;;;;;5089727;28;20041;-47
2023/12/10 10:38:23;;;;;;;33.90;5.97;;;8.10;99.90;;;;;;5091371;28;20682;-49
2023/12/10 10:40:49;;;;;;;42.72;6.10;;;8.20;99.90;;;;;;5092649;28;20036;-46
2023/12/10 10:43:15;;;;;;;41.72;6.15;;;8.20;99.90;;;;;;5092703;28;20063;-47
2023/12/10 10:45:42;;;;;;;40.90;6.72;;;8.20;99.90;;;;;;5092961;28;20060;-45
2023/12/10 10:48:08;;;;;;;36.08;6.10;;;8.20;99.90;;;;;;5078348;28;20036;-45
2023/12/10 10:50:37;;;;;;;37.67;5.57;;;8.30;99.90;;;;;;5091728;28;21442;-45
2023/12/10 10:53:03;;;;;;;33.88;4.97;;;8.30;99.90;;;;;;5093681;28;20108;-47
2023/12/10 10:55:31;;;;;;;31.90;5.28;;;8.30;99.90;;;;;;5091841;28;20051;-46
2023/12/10 10:57:57;;;;;;;;;;;8.30;99.90;;;;;;5093503;28;20047;-46
2023/12/10 11:00:23;;;;;;;25.77;4.35;;;8.40;99.90;;;;;;5091827;28;20660;-46
2023/12/10 11:02:53;;;;;;;30.48;4.93;;;8.30;99.90;;;;;;5077759;28;20044;-46
2023/12/10 11:05:35;;;;;;;34.05;4.60;;;8.40;99.90;;;;;;5090023;28;20055;-47
2023/12/10 11:08:05;;;;;;;28.40;6.10;;;8.30;99.90;;;;;;5085800;28;20044;-46
2023/12/10 11:10:31;;;;;;;29.92;5.55;;;8.30;99.90;;;;;;5090248;28;20056;-46
2023/12/10 11:12:59;;;;;;;32.85;5.07;;;8.40;99.90;;;;;;5087864;28;20405;-49
2023/12/10 11:15:27;;;;;;;28.88;5.05;;;8.60;99.90;;;;;;5089134;28;20068;-45
2023/12/10 11:17:58;;;;;;;24.30;4.78;;;8.60;99.90;;;;;;5090739;28;20397;-45
2023/12/10 11:20:43;;;;;;;27.23;4.20;;;8.60;99.90;;;;;;5087317;28;20036;-45
2023/12/10 11:23:16;;;;;;;34.17;5.80;;;8.60;99.90;;;;;;5090216;28;20474;-45
2023/12/10 11:25:43;;;;;;;30.83;5.07;;;8.60;99.90;;;;;;5090573;28;20044;-45
2023/12/10 11:28:14;;;;;;;33.85;5.07;;;8.70;99.90;;;;;;5090738;28;20047;-45
2023/12/10 11:30:41;;;;;;;29.42;5.18;;;8.70;99.90;;;;;;5091773;28;20044;-45
2023/12/10 11:33:08;;;;;;;26.35;4.38;;;8.70;99.90;;;;;;5091700;28;20062;-45
2023/12/10 11:35:35;;;;;;;25.75;5.10;;;8.70;99.90;;;;;;5091806;28;20032;-45
2023/12/10 11:38:01;;;;;;;33.13;5.00;;;8.80;99.90;;;;;;5089807;28;20480;-46
2023/12/10 11:40:27;;;;;;;27.73;4.57;;;8.80;99.90;;;;;;5091769;28;20047;-48
2023/12/10 11:42:53;;;;;;;30.55;5.03;;;8.70;99.90;;;;;;5088575;28;20040;-46
2023/12/10 11:45:19;;;;;;;25.73;4.88;;;8.80;99.90;;;;;;5091735;28;20044;-45
2023/12/10 11:47:46;;;;;;;26.17;5.13;;;8.70;99.90;;;;;;5092357;28;20046;-49
2023/12/10 11:50:14;;;;;;;33.83;5.17;;;8.70;99.90;;;;;;5090233;28;20036;-46
2023/12/10 11:52:40;;;;;;;30.73;4.70;;;8.70;99.90;;;;;;5091474;28;20053;-46
2023/12/10 11:55:09;;;;;;;28.75;5.82;;;8.70;99.90;;;;;;5091548;28;20115;-46
2023/12/10 11:57:42;;;;;;;28.08;5.18;;;8.70;99.90;;;;;;5090100;28;20079;-46
2023/12/10 12:00:09;;;;;;;30.35;4.40;;;8.60;99.90;;;;;;5091993;28;20071;-46
2023/12/10 12:02:40;;;;;;;29.33;4.60;;;8.60;99.90;;;;;;5093148;28;20481;-46
2023/12/10 12:05:11;;;;;;;26.98;4.93;;;8.60;99.90;;;;;;5095825;28;20052;-47
2023/12/10 12:07:38;;;;;;;22.98;4.60;;;8.50;99.90;;;;;;5089442;28;20044;-49
2023/12/10 12:10:05;;;;;;;26.77;4.43;;;8.50;99.90;;;;;;5092198;28;20067;-47
2023/12/10 12:12:35;;;;;;;21.07;3.97;;;8.50;99.90;;;;;;5093025;28;20075;-47
2023/12/10 12:15:02;;;;;;;25.27;4.40;;;8.50;99.90;;;;;;5093462;28;20173;-46
2023/12/10 12:17:29;;;;;;;26.48;4.07;;;8.50;99.90;;;;;;5093222;28;20056;-49
2023/12/10 12:19:54;;;;;;;18.92;3.70;;;8.50;99.90;;;;;;5092643;28;20393;-49
2023/12/10 12:22:20;;;;;;;20.60;4.00;;;8.50;99.90;;;;;;5092413;28;20119;-46
2023/12/10 12:24:45;;;;;;;20.67;4.05;;;8.50;99.90;;;;;;5074134;28;20137;-49
2023/12/10 12:27:12;;;;;;;19.85;3.60;;;8.50;99.90;;;;;;5091716;28;20397;-46
2023/12/10 12:29:38;;;;;;;16.60;3.60;;;8.50;99.90;;;;;;5075361;28;20044;-45
2023/12/10 12:32:04;;;;;;;18.15;3.10;;;8.60;99.90;;;;;;5072390;28;20044;-46
2023/12/10 12:34:30;;;;;;;19.95;3.75;;;8.50;99.90;;;;;;5072233;28;20042;-45
2023/12/10 12:36:56;;;;;;;21.02;3.90;;;8.50;99.90;;;;;;5072601;28;20106;-47
2023/12/10 12:39:22;;;;;;;19.73;3.45;;;8.50;99.90;;;;;;5072489;28;20500;-48
2023/12/10 12:41:49;;;;;;;21.92;3.83;;;8.50;99.90;;;;;;5089209;28;20043;-46
2023/12/10 12:44:14;;;;;;;20.23;4.05;;;8.50;99.90;;;;;;5092538;28;20040;-47